createdAt,value
2018-03-11T00:00:52.333Z,965.64
2018-03-11T00:01:52.362Z,965.67
2018-03-11T00:02:52.393Z,965.64
2018-03-11T00:03:52.419Z,965.66
2018-03-11T00:04:52.452Z,965.63
2018-03-11T00:05:52.480Z,965.65
2018-03-11T00:06:52.516Z,965.70
2018-03-11T00:07:52.545Z,965.65
2018-03-11T00:08:52.575Z,965.67
2018-03-11T00:09:52.608Z,965.68
2018-03-11T00:10:52.639Z,965.66
2018-03-11T00:11:52.663Z,965.68
2018-03-11T00:12:52.695Z,965.68
2018-03-11T00:13:52.725Z,965.66
2018-03-11T00:14:52.757Z,965.68
2018-03-11T00:15:52.788Z,965.66
2018-03-11T00:16:52.820Z,965.67
2018-03-11T00:17:52.849Z,965.67
2018-03-11T00:18:52.875Z,965.67
2018-03-11T00:19:52.908Z,965.66
2018-03-11T00:20:52.939Z,965.65
2018-03-11T00:21:52.967Z,965.64
2018-03-11T00:22:53.000Z,965.67
2018-03-11T00:23:53.041Z,965.64
2018-03-11T00:24:53.062Z,965.66
2018-03-11T00:25:53.092Z,965.67
2018-03-11T00:26:53.122Z,965.63
2018-03-11T00:27:53.152Z,965.63
2018-03-11T00:28:53.180Z,965.63
2018-03-11T00:29:53.212Z,965.60
2018-03-11T00:30:53.239Z,965.59
2018-03-11T00:31:53.265Z,965.58
2018-03-11T00:32:53.298Z,965.63
2018-03-11T00:33:53.325Z,965.60
2018-03-11T00:34:53.358Z,965.60
2018-03-11T00:35:53.392Z,965.62
2018-03-11T00:36:53.422Z,965.57
2018-03-11T00:37:53.450Z,965.61
2018-03-11T00:38:53.475Z,965.56
2018-03-11T00:39:53.505Z,965.61
2018-03-11T00:40:53.537Z,965.61
2018-03-11T00:41:53.566Z,965.58
2018-03-11T00:42:53.597Z,965.57
2018-03-11T00:43:53.633Z,965.56
2018-03-11T00:44:53.657Z,965.55
2018-03-11T00:45:53.685Z,965.58
2018-03-11T00:46:53.722Z,965.52
2018-03-11T00:47:53.750Z,965.48
2018-03-11T00:48:53.782Z,965.54
2018-03-11T00:49:53.811Z,965.48
2018-03-11T00:50:53.837Z,965.50
2018-03-11T00:51:53.865Z,965.50
2018-03-11T00:52:53.895Z,965.47
2018-03-11T00:53:53.924Z,965.49
2018-03-11T00:54:53.956Z,965.46
2018-03-11T00:55:53.986Z,965.44
2018-03-11T00:56:54.019Z,965.45
2018-03-11T00:57:54.045Z,965.44
2018-03-11T00:58:54.078Z,965.43
2018-03-11T00:59:54.107Z,965.41
2018-03-11T01:00:54.137Z,965.40
2018-03-11T01:01:54.165Z,965.43
2018-03-11T01:02:54.190Z,965.41
2018-03-11T01:03:54.224Z,965.36
2018-03-11T01:04:54.253Z,965.37
2018-03-11T01:05:54.280Z,965.37
2018-03-11T01:06:54.347Z,965.35
2018-03-11T01:07:54.345Z,965.38
2018-03-11T01:08:54.373Z,965.30
2018-03-11T01:09:54.402Z,965.31
2018-03-11T01:10:54.429Z,965.28
2018-03-11T01:11:54.458Z,965.24
2018-03-11T01:12:54.486Z,965.31
2018-03-11T01:13:54.517Z,965.26
2018-03-11T01:14:54.555Z,965.23
2018-03-11T01:15:54.583Z,965.22
2018-03-11T01:16:54.611Z,965.17
2018-03-11T01:17:54.641Z,965.17
2018-03-11T01:18:54.668Z,965.15
2018-03-11T01:19:54.694Z,965.16
2018-03-11T01:20:54.726Z,965.20
2018-03-11T01:21:54.755Z,965.19
2018-03-11T01:22:54.790Z,965.19
2018-03-11T01:23:54.819Z,965.15
2018-03-11T01:24:54.850Z,965.14
2018-03-11T01:25:54.875Z,965.10
2018-03-11T01:26:54.906Z,965.16
2018-03-11T01:27:54.934Z,965.14
2018-03-11T01:28:54.965Z,965.10
2018-03-11T01:29:54.992Z,965.09
2018-03-11T01:30:55.025Z,965.10
2018-03-11T01:31:55.050Z,965.07
2018-03-11T01:32:55.082Z,965.03
2018-03-11T01:33:55.113Z,965.03
2018-03-11T01:34:55.145Z,965.02
2018-03-11T01:35:55.173Z,964.98
2018-03-11T01:36:55.205Z,964.99
2018-03-11T01:37:55.231Z,964.96
2018-03-11T01:38:55.258Z,964.91
2018-03-11T01:39:55.288Z,964.91
2018-03-11T01:40:55.319Z,964.85
2018-03-11T01:41:55.348Z,964.92
2018-03-11T01:42:55.379Z,964.90
2018-03-11T01:43:55.414Z,964.91
2018-03-11T01:44:55.440Z,964.94
2018-03-11T01:45:55.469Z,964.88
2018-03-11T01:46:55.506Z,964.86
2018-03-11T01:47:55.529Z,964.86
2018-03-11T01:48:55.560Z,964.81
2018-03-11T01:49:55.586Z,964.81
2018-03-11T01:50:55.610Z,964.80
2018-03-11T01:51:55.643Z,964.77
2018-03-11T01:52:55.674Z,964.81
2018-03-11T01:53:55.699Z,964.83
2018-03-11T01:54:55.735Z,964.83
2018-03-11T01:55:55.764Z,964.80
2018-03-11T01:56:55.792Z,964.82
2018-03-11T01:57:55.824Z,964.84
2018-03-11T01:58:55.852Z,964.81
2018-03-11T01:59:55.915Z,964.77
2018-03-11T02:00:55.909Z,964.80
2018-03-11T02:01:55.937Z,964.73
2018-03-11T02:02:55.966Z,964.72
2018-03-11T02:03:55.999Z,964.70
2018-03-11T02:04:56.026Z,964.71
2018-03-11T02:05:56.055Z,964.66
2018-03-11T02:06:56.091Z,964.67
2018-03-11T02:07:56.120Z,964.67
2018-03-11T02:08:56.149Z,964.66
2018-03-11T02:09:56.179Z,964.66
2018-03-11T02:10:56.204Z,964.64
2018-03-11T02:11:56.233Z,964.65
2018-03-11T02:12:56.267Z,964.65
2018-03-11T02:13:56.294Z,964.63
2018-03-11T02:14:56.329Z,964.63
2018-03-11T02:15:56.356Z,964.57
2018-03-11T02:16:56.383Z,964.56
2018-03-11T02:17:56.418Z,964.56
2018-03-11T02:18:56.446Z,964.57
2018-03-11T02:19:56.474Z,964.55
2018-03-11T02:20:56.504Z,964.54
2018-03-11T02:21:56.533Z,964.54
2018-03-11T02:22:56.559Z,964.53
2018-03-11T02:23:56.587Z,964.54
2018-03-11T02:24:56.616Z,964.58
2018-03-11T02:25:56.646Z,964.53
2018-03-11T02:26:56.681Z,964.55
2018-03-11T02:27:56.711Z,964.54
2018-03-11T02:28:56.738Z,964.53
2018-03-11T02:29:56.767Z,964.49
2018-03-11T02:30:56.795Z,964.51
2018-03-11T02:31:56.823Z,964.45
2018-03-11T02:32:56.855Z,964.50
2018-03-11T02:33:56.882Z,964.47
2018-03-11T02:34:56.918Z,964.51
2018-03-11T02:35:56.943Z,964.54
2018-03-11T02:36:56.971Z,964.54
2018-03-11T02:37:57.004Z,964.58
2018-03-11T02:38:57.037Z,964.56
2018-03-11T02:39:57.067Z,964.58
2018-03-11T02:40:57.094Z,964.59
2018-03-11T02:41:57.126Z,964.59
2018-03-11T02:42:57.149Z,964.58
2018-03-11T02:43:57.180Z,964.57
2018-03-11T02:44:57.209Z,964.54
2018-03-11T02:45:57.238Z,964.55
2018-03-11T02:46:57.273Z,964.52
2018-03-11T02:47:57.302Z,964.53
2018-03-11T02:48:57.333Z,964.51
2018-03-11T02:49:57.360Z,964.48
2018-03-11T02:50:57.390Z,964.53
2018-03-11T02:51:57.423Z,964.51
2018-03-11T02:52:57.452Z,964.48
2018-03-11T02:53:57.484Z,964.48
2018-03-11T02:54:57.507Z,964.53
2018-03-11T02:55:57.535Z,964.49
2018-03-11T02:56:57.567Z,964.50
2018-03-11T02:57:57.597Z,964.49
2018-03-11T02:58:57.630Z,964.46
2018-03-11T02:59:57.660Z,964.48
2018-03-11T03:00:57.690Z,964.45
2018-03-11T03:01:57.720Z,964.42
2018-03-11T03:02:57.742Z,964.42
2018-03-11T03:03:57.773Z,964.42
2018-03-11T03:04:57.805Z,964.40
2018-03-11T03:05:57.832Z,964.35
2018-03-11T03:06:57.861Z,964.34
2018-03-11T03:07:57.900Z,964.31
2018-03-11T03:08:57.925Z,964.28
2018-03-11T03:09:57.954Z,964.26
2018-03-11T03:10:57.987Z,964.26
2018-03-11T03:11:58.018Z,964.28
2018-03-11T03:12:58.046Z,964.28
2018-03-11T03:13:58.077Z,964.26
2018-03-11T03:14:58.100Z,964.23
2018-03-11T03:15:58.132Z,964.23
2018-03-11T03:16:58.163Z,964.22
2018-03-11T03:17:58.190Z,964.20
2018-03-11T03:18:58.226Z,964.15
2018-03-11T03:19:58.256Z,964.12
2018-03-11T03:20:58.282Z,964.16
2018-03-11T03:21:58.312Z,964.11
2018-03-11T03:22:58.339Z,964.15
2018-03-11T03:23:58.369Z,964.13
2018-03-11T03:24:58.395Z,964.06
2018-03-11T03:25:58.430Z,964.02
2018-03-11T03:26:58.464Z,964.04
2018-03-11T03:27:58.490Z,964.05
2018-03-11T03:28:58.523Z,964.02
2018-03-11T03:29:58.550Z,963.96
2018-03-11T03:30:58.578Z,963.97
2018-03-11T03:31:58.609Z,963.91
2018-03-11T03:32:58.636Z,963.86
2018-03-11T03:33:58.664Z,963.85
2018-03-11T03:34:58.697Z,963.83
2018-03-11T03:35:58.727Z,963.86
2018-03-11T03:36:58.760Z,963.87
2018-03-11T03:37:58.786Z,963.84
2018-03-11T03:38:58.820Z,963.81
2018-03-11T03:39:58.848Z,963.79
2018-03-11T03:40:58.876Z,963.72
2018-03-11T03:41:58.907Z,963.71
2018-03-11T03:42:58.933Z,963.69
2018-03-11T03:43:58.960Z,963.72
2018-03-11T03:44:58.990Z,963.71
2018-03-11T03:45:59.229Z,963.77
2018-03-11T03:46:59.056Z,963.75
2018-03-11T03:47:59.086Z,963.70
2018-03-11T03:48:59.114Z,963.73
2018-03-11T03:49:59.142Z,963.73
2018-03-11T03:50:59.169Z,963.71
2018-03-11T03:51:59.198Z,963.69
2018-03-11T03:52:59.232Z,963.68
2018-03-11T03:53:59.256Z,963.70
2018-03-11T03:54:59.286Z,963.68
2018-03-11T03:55:59.318Z,963.70
2018-03-11T03:56:59.351Z,963.70
2018-03-11T03:57:59.374Z,963.69
2018-03-11T03:58:59.409Z,963.68
2018-03-11T03:59:59.439Z,963.68
2018-03-11T04:00:59.469Z,963.69
2018-03-11T04:01:59.499Z,963.67
2018-03-11T04:02:59.525Z,963.67
2018-03-11T04:03:59.554Z,963.62
2018-03-11T04:04:59.584Z,963.65
2018-03-11T04:05:59.616Z,963.66
2018-03-11T04:06:59.650Z,963.70
2018-03-11T04:07:59.677Z,963.69
2018-03-11T04:08:59.711Z,963.67
2018-03-11T04:09:59.738Z,963.70
2018-03-11T04:10:59.766Z,963.71
2018-03-11T04:11:59.798Z,963.72
2018-03-11T04:12:59.830Z,963.72
2018-03-11T04:13:59.855Z,963.76
2018-03-11T04:14:59.879Z,963.76
2018-03-11T04:15:59.913Z,963.75
2018-03-11T04:16:59.942Z,963.75
2018-03-11T04:17:59.969Z,963.69
2018-03-11T04:19:00.006Z,963.67
2018-03-11T04:20:00.034Z,963.64
2018-03-11T04:21:00.064Z,963.63
2018-03-11T04:22:00.094Z,963.60
2018-03-11T04:23:00.118Z,963.58
2018-03-11T04:24:00.149Z,963.55
2018-03-11T04:25:00.178Z,963.55
2018-03-11T04:26:00.209Z,963.59
2018-03-11T04:27:00.242Z,963.60
2018-03-11T04:28:00.271Z,963.57
2018-03-11T04:29:00.302Z,963.58
2018-03-11T04:30:00.333Z,963.55
2018-03-11T04:31:00.358Z,963.51
2018-03-11T04:32:00.394Z,963.51
2018-03-11T04:33:00.431Z,963.50
2018-03-11T04:34:00.446Z,963.49
2018-03-11T04:35:00.481Z,963.49
2018-03-11T04:36:00.513Z,963.48
2018-03-11T04:37:00.544Z,963.52
2018-03-11T04:38:00.570Z,963.48
2018-03-11T04:39:00.595Z,963.48
2018-03-11T04:40:00.628Z,963.46
2018-03-11T04:41:00.658Z,963.49
2018-03-11T04:42:00.689Z,963.56
2018-03-11T04:43:00.718Z,963.58
2018-03-11T04:44:00.748Z,963.55
2018-03-11T04:45:00.777Z,963.54
2018-03-11T04:46:00.806Z,963.58
2018-03-11T04:47:00.843Z,963.57
2018-03-11T04:48:00.871Z,963.57
2018-03-11T04:49:00.903Z,963.56
2018-03-11T04:50:00.937Z,963.51
2018-03-11T04:51:00.957Z,963.52
2018-03-11T04:52:00.990Z,963.52
2018-03-11T04:53:01.019Z,963.53
2018-03-11T04:54:01.048Z,963.47
2018-03-11T04:55:01.082Z,963.45
2018-03-11T04:56:01.115Z,963.43
2018-03-11T04:57:01.147Z,963.42
2018-03-11T04:58:01.173Z,963.42
2018-03-11T04:59:01.203Z,963.35
2018-03-11T05:00:01.236Z,963.39
2018-03-11T05:01:01.266Z,963.40
2018-03-11T05:02:01.296Z,963.37
2018-03-11T05:03:01.323Z,963.35
2018-03-11T05:04:01.355Z,963.41
2018-03-11T05:05:01.384Z,963.42
2018-03-11T05:06:01.414Z,963.41
2018-03-11T05:07:01.447Z,963.40
2018-03-11T05:08:01.479Z,963.39
2018-03-11T05:09:01.509Z,963.35
2018-03-11T05:10:01.539Z,963.33
2018-03-11T05:11:01.565Z,963.31
2018-03-11T05:12:01.593Z,963.35
2018-03-11T05:13:01.626Z,963.34
2018-03-11T05:14:01.655Z,963.29
2018-03-11T05:15:01.685Z,963.34
2018-03-11T05:16:01.717Z,963.32
2018-03-11T05:17:01.748Z,963.37
2018-03-11T05:18:01.776Z,963.32
2018-03-11T05:19:01.817Z,963.35
2018-03-11T05:20:01.859Z,963.38
2018-03-11T05:21:01.870Z,963.39
2018-03-11T05:22:01.904Z,963.41
2018-03-11T05:23:01.930Z,963.44
2018-03-11T05:24:01.959Z,963.44
2018-03-11T05:25:01.990Z,963.49
2018-03-11T05:26:02.023Z,963.48
2018-03-11T05:27:02.055Z,963.43
2018-03-11T05:28:02.088Z,963.42
2018-03-11T05:29:02.120Z,963.41
2018-03-11T05:30:02.149Z,963.36
2018-03-11T05:31:02.175Z,963.35
2018-03-11T05:32:02.204Z,963.33
2018-03-11T05:33:02.236Z,963.25
2018-03-11T05:34:02.268Z,963.24
2018-03-11T05:35:02.301Z,963.21
2018-03-11T05:36:02.332Z,963.19
2018-03-11T05:37:02.364Z,963.21
2018-03-11T05:38:02.394Z,963.22
2018-03-11T05:39:02.421Z,963.23
2018-03-11T05:40:02.452Z,963.28
2018-03-11T05:41:02.481Z,963.27
2018-03-11T05:42:02.512Z,963.31
2018-03-11T05:43:02.546Z,963.35
2018-03-11T05:44:02.576Z,963.43
2018-03-11T05:45:02.612Z,963.47
2018-03-11T05:46:02.638Z,963.44
2018-03-11T05:47:02.673Z,963.50
2018-03-11T05:48:02.700Z,963.51
2018-03-11T05:49:02.729Z,963.51
2018-03-11T05:50:02.764Z,963.46
2018-03-11T05:51:02.788Z,963.44
2018-03-11T05:52:02.813Z,963.42
2018-03-11T05:53:02.844Z,963.39
2018-03-11T05:54:02.882Z,963.40
2018-03-11T05:55:02.911Z,963.40
2018-03-11T05:56:02.945Z,963.36
2018-03-11T05:57:02.969Z,963.46
2018-03-11T05:58:03.000Z,963.45
2018-03-11T05:59:03.027Z,963.45
2018-03-11T06:00:03.058Z,963.45
2018-03-11T06:01:03.089Z,963.45
2018-03-11T06:02:03.117Z,963.48
2018-03-11T06:03:03.146Z,963.43
2018-03-11T06:04:03.180Z,963.41
2018-03-11T06:05:03.210Z,963.47
2018-03-11T06:06:03.237Z,963.43
2018-03-11T06:07:03.272Z,963.41
2018-03-11T06:08:03.306Z,963.43
2018-03-11T06:09:03.335Z,963.43
2018-03-11T06:10:03.369Z,963.44
2018-03-11T06:11:03.396Z,963.44
2018-03-11T06:12:03.421Z,963.43
2018-03-11T06:13:03.452Z,963.42
2018-03-11T06:14:03.482Z,963.50
2018-03-11T06:15:03.519Z,963.46
2018-03-11T06:16:03.546Z,963.51
2018-03-11T06:17:03.575Z,963.50
2018-03-11T06:18:03.607Z,963.46
2018-03-11T06:19:03.637Z,963.46
2018-03-11T06:20:03.669Z,963.41
2018-03-11T06:21:03.704Z,963.42
2018-03-11T06:22:03.731Z,963.41
2018-03-11T06:23:06.379Z,963.34
2018-03-11T06:24:03.792Z,963.33
2018-03-11T06:25:03.819Z,963.34
2018-03-11T06:26:03.848Z,963.35
2018-03-11T06:27:03.887Z,963.35
2018-03-11T06:28:03.916Z,963.35
2018-03-11T06:29:03.947Z,963.31
2018-03-11T06:30:03.981Z,963.34
2018-03-11T06:31:04.009Z,963.31
2018-03-11T06:32:04.037Z,963.34
2018-03-11T06:33:04.068Z,963.30
2018-03-11T06:34:04.101Z,963.30
2018-03-11T06:35:04.134Z,963.26
2018-03-11T06:36:04.166Z,963.34
2018-03-11T06:37:04.194Z,963.34
2018-03-11T06:38:04.226Z,963.31
2018-03-11T06:39:04.254Z,963.27
2018-03-11T06:40:04.280Z,963.22
2018-03-11T06:41:04.316Z,963.24
2018-03-11T06:42:04.343Z,963.20
2018-03-11T06:43:04.379Z,963.22
2018-03-11T06:44:04.409Z,963.16
2018-03-11T06:45:04.441Z,963.18
2018-03-11T06:46:04.469Z,963.15
2018-03-11T06:47:04.501Z,963.16
2018-03-11T06:48:04.530Z,963.15
2018-03-11T06:49:04.560Z,963.25
2018-03-11T06:50:04.591Z,963.29
2018-03-11T06:51:04.620Z,963.26
2018-03-11T06:52:04.650Z,963.29
2018-03-11T06:53:04.683Z,963.25
2018-03-11T06:54:04.714Z,963.18
2018-03-11T06:55:04.748Z,963.15
2018-03-11T06:56:04.779Z,963.16
2018-03-11T06:57:04.809Z,963.14
2018-03-11T06:58:04.841Z,963.12
2018-03-11T06:59:04.868Z,963.09
2018-03-11T07:00:04.899Z,963.07
2018-03-11T07:01:04.932Z,963.08
2018-03-11T07:02:04.960Z,963.11
2018-03-11T07:03:04.996Z,963.09
2018-03-11T07:04:05.030Z,963.04
2018-03-11T07:05:05.062Z,962.97
2018-03-11T07:06:05.091Z,963.00
2018-03-11T07:07:05.125Z,962.92
2018-03-11T07:08:05.153Z,962.90
2018-03-11T07:09:05.190Z,962.90
2018-03-11T07:10:05.218Z,962.83
2018-03-11T07:11:05.248Z,962.89
2018-03-11T07:12:05.277Z,962.88
2018-03-11T07:13:05.310Z,962.88
2018-03-11T07:14:05.340Z,962.89
2018-03-11T07:15:05.377Z,962.89
2018-03-11T07:16:05.409Z,962.87
2018-03-11T07:17:05.436Z,962.84
2018-03-11T07:18:05.478Z,962.80
2018-03-11T07:19:05.497Z,962.83
2018-03-11T07:20:05.531Z,962.75
2018-03-11T07:21:05.560Z,962.77
2018-03-11T07:22:05.589Z,962.72
2018-03-11T07:23:05.631Z,962.68
2018-03-11T07:24:05.656Z,962.73
2018-03-11T07:25:05.686Z,962.70
2018-03-11T07:26:05.714Z,962.71
2018-03-11T07:27:05.751Z,962.70
2018-03-11T07:28:05.782Z,962.65
2018-03-11T07:29:05.813Z,962.59
2018-03-11T07:30:05.842Z,962.56
2018-03-11T07:31:05.868Z,962.56
2018-03-11T07:32:05.899Z,962.53
2018-03-11T07:33:05.931Z,962.54
2018-03-11T07:34:05.963Z,962.48
2018-03-11T07:35:05.998Z,962.51
2018-03-11T07:36:06.027Z,962.47
2018-03-11T07:37:06.059Z,962.45
2018-03-11T07:38:06.088Z,962.48
2018-03-11T07:39:06.120Z,962.44
2018-03-11T07:40:06.148Z,962.40
2018-03-11T07:41:06.177Z,962.39
2018-03-11T07:42:06.212Z,962.40
2018-03-11T07:43:06.248Z,962.40
2018-03-11T07:44:06.274Z,962.39
2018-03-11T07:45:06.309Z,962.39
2018-03-11T07:46:06.339Z,962.41
2018-03-11T07:47:06.365Z,962.36
2018-03-11T07:48:06.401Z,962.37
2018-03-11T07:49:06.429Z,962.37
2018-03-11T07:50:06.460Z,962.34
2018-03-11T07:51:06.494Z,962.34
2018-03-11T07:52:06.528Z,962.29
2018-03-11T07:53:06.556Z,962.30
2018-03-11T07:54:06.593Z,962.27
2018-03-11T07:55:06.627Z,962.22
2018-03-11T07:56:06.652Z,962.22
2018-03-11T07:57:06.686Z,962.20
2018-03-11T07:58:06.715Z,962.12
2018-03-11T07:59:06.780Z,962.12
2018-03-11T08:00:06.772Z,962.09
2018-03-11T08:01:06.807Z,962.08
2018-03-11T08:02:06.836Z,962.03
2018-03-11T08:03:06.871Z,962.03
2018-03-11T08:04:06.903Z,962.00
2018-03-11T08:05:06.940Z,962.02
2018-03-11T08:06:06.971Z,962.07
2018-03-11T08:07:07.083Z,962.15
2018-03-11T08:08:07.027Z,962.18
2018-03-11T08:09:07.062Z,962.31
2018-03-11T08:10:07.093Z,962.27
2018-03-11T08:11:07.123Z,962.27
2018-03-11T08:12:07.156Z,962.25
2018-03-11T08:13:07.187Z,962.24
2018-03-11T08:14:07.218Z,962.24
2018-03-11T08:15:07.255Z,962.26
2018-03-11T08:16:07.286Z,962.32
2018-03-11T08:17:07.318Z,962.34
2018-03-11T08:18:07.350Z,962.36
2018-03-11T08:19:07.380Z,962.39
2018-03-11T08:20:07.410Z,962.45
2018-03-11T08:21:07.445Z,962.41
2018-03-11T08:22:07.476Z,962.47
2018-03-11T08:23:07.512Z,962.51
2018-03-11T08:24:07.544Z,962.53
2018-03-11T08:25:07.578Z,962.53
2018-03-11T08:26:07.609Z,962.50
2018-03-11T08:27:07.643Z,962.50
2018-03-11T08:28:07.674Z,962.37
2018-03-11T08:29:07.709Z,962.31
2018-03-11T08:30:07.745Z,962.19
2018-03-11T08:31:07.770Z,962.15
2018-03-11T08:32:07.802Z,962.10
2018-03-11T08:33:07.844Z,962.08
2018-03-11T08:34:07.866Z,962.00
2018-03-11T08:35:07.905Z,962.03
2018-03-11T08:36:07.969Z,962.04
2018-03-11T08:37:07.972Z,962.07
2018-03-11T08:38:08.001Z,962.11
2018-03-11T08:39:08.033Z,962.15
2018-03-11T08:40:08.065Z,962.26
2018-03-11T08:41:08.097Z,962.32
2018-03-11T08:42:08.131Z,962.33
2018-03-11T08:43:08.167Z,962.33
2018-03-11T08:44:08.200Z,962.35
2018-03-11T08:45:08.233Z,962.32
2018-03-11T08:46:08.263Z,962.40
2018-03-11T08:47:08.291Z,962.45
2018-03-11T08:48:08.325Z,962.55
2018-03-11T08:49:08.358Z,962.60
2018-03-11T08:50:08.389Z,962.66
2018-03-11T08:51:08.427Z,962.68
2018-03-11T08:52:08.458Z,962.71
2018-03-11T08:53:08.491Z,962.69
2018-03-11T08:54:08.537Z,962.70
2018-03-11T08:55:08.551Z,962.75
2018-03-11T08:56:08.583Z,962.76
2018-03-11T08:57:08.920Z,962.83
2018-03-11T08:58:08.654Z,962.82
2018-03-11T08:59:08.687Z,962.82
2018-03-11T09:00:08.714Z,962.88
2018-03-11T09:01:08.749Z,962.89
2018-03-11T09:02:08.782Z,962.88
2018-03-11T09:03:08.818Z,962.93
2018-03-11T09:04:08.853Z,963.03
2018-03-11T09:05:08.885Z,963.06
2018-03-11T09:06:08.916Z,963.11
2018-03-11T09:07:08.943Z,963.08
2018-03-11T09:08:08.981Z,963.12
2018-03-11T09:09:09.009Z,963.09
2018-03-11T09:10:09.041Z,963.05
2018-03-11T09:11:09.083Z,963.06
2018-03-11T09:12:09.109Z,962.99
2018-03-11T09:13:09.142Z,962.95
2018-03-11T09:14:09.175Z,962.93
2018-03-11T09:15:09.208Z,962.87
2018-03-11T09:16:09.240Z,962.87
2018-03-11T09:17:09.273Z,962.83
2018-03-11T09:18:09.367Z,962.78
2018-03-11T09:19:09.336Z,962.72
2018-03-11T09:20:09.364Z,962.74
2018-03-11T09:21:09.399Z,962.76
2018-03-11T09:22:09.430Z,962.71
2018-03-11T09:23:09.470Z,962.71
2018-03-11T09:24:09.501Z,962.71
2018-03-11T09:25:09.533Z,962.69
2018-03-11T09:26:09.563Z,962.67
2018-03-11T09:27:09.595Z,962.64
2018-03-11T09:28:09.627Z,962.56
2018-03-11T09:29:09.657Z,962.55
2018-03-11T09:30:09.691Z,962.48
2018-03-11T09:31:09.721Z,962.48
2018-03-11T09:32:09.757Z,962.44
2018-03-11T09:33:09.788Z,962.45
2018-03-11T09:34:09.822Z,962.47
2018-03-11T09:35:09.858Z,962.50
2018-03-11T09:36:09.891Z,962.52
2018-03-11T09:37:09.924Z,962.52
2018-03-11T09:38:09.952Z,962.51
2018-03-11T09:39:09.982Z,962.55
2018-03-11T09:40:10.014Z,962.44
2018-03-11T09:41:10.051Z,962.48
2018-03-11T09:42:10.076Z,962.51
2018-03-11T09:43:10.116Z,962.50
2018-03-11T09:44:10.149Z,962.48
2018-03-11T09:45:10.183Z,962.47
2018-03-11T09:46:10.212Z,962.41
2018-03-11T09:47:10.238Z,962.38
2018-03-11T09:48:10.276Z,962.37
2018-03-11T09:49:10.307Z,962.27
2018-03-11T09:50:10.338Z,962.23
2018-03-11T09:51:10.372Z,962.11
2018-03-11T09:52:10.404Z,962.02
2018-03-11T09:53:10.436Z,961.96
2018-03-11T09:54:10.468Z,962.00
2018-03-11T09:55:10.499Z,961.96
2018-03-11T09:56:10.529Z,961.97
2018-03-11T09:57:10.558Z,961.97
2018-03-11T09:58:10.594Z,961.95
2018-03-11T09:59:10.631Z,961.95
2018-03-11T10:00:10.659Z,961.95
2018-03-11T10:01:10.696Z,961.99
2018-03-11T10:02:10.726Z,961.99
2018-03-11T10:03:10.759Z,961.94
2018-03-11T10:04:10.791Z,961.92
2018-03-11T10:05:10.822Z,961.87
2018-03-11T10:06:10.857Z,961.83
2018-03-11T10:07:10.882Z,961.72
2018-03-11T10:08:10.915Z,961.69
2018-03-11T10:09:10.945Z,961.66
2018-03-11T10:10:10.981Z,961.68
2018-03-11T10:11:11.016Z,961.65
2018-03-11T10:12:11.051Z,961.68
2018-03-11T10:13:11.082Z,961.59
2018-03-11T10:14:11.114Z,961.62
2018-03-11T10:15:11.146Z,961.54
2018-03-11T10:16:11.175Z,961.59
2018-03-11T10:17:11.213Z,961.53
2018-03-11T10:18:11.242Z,961.49
2018-03-11T10:19:11.275Z,961.50
2018-03-11T10:20:11.311Z,961.48
2018-03-11T10:21:11.342Z,961.45
2018-03-11T10:22:11.377Z,961.46
2018-03-11T10:23:11.413Z,961.51
2018-03-11T10:24:11.446Z,961.45
2018-03-11T10:25:11.480Z,961.38
2018-03-11T10:26:11.509Z,961.35
2018-03-11T10:27:11.540Z,961.31
2018-03-11T10:28:11.574Z,961.31
2018-03-11T10:29:11.607Z,961.29
2018-03-11T10:30:11.649Z,961.31
2018-03-11T10:31:11.673Z,961.27
2018-03-11T10:32:11.710Z,961.24
2018-03-11T10:33:11.741Z,961.16
2018-03-11T10:34:11.776Z,961.09
2018-03-11T10:35:11.812Z,961.01
2018-03-11T10:36:11.840Z,961.02
2018-03-11T10:37:11.874Z,960.98
2018-03-11T10:38:11.906Z,960.99
2018-03-11T10:39:11.936Z,960.94
2018-03-11T10:40:11.972Z,960.90
2018-03-11T10:41:12.005Z,960.94
2018-03-11T10:42:12.037Z,960.88
2018-03-11T10:43:12.072Z,960.92
2018-03-11T10:44:12.111Z,960.93
2018-03-11T10:45:12.140Z,960.98
2018-03-11T10:46:12.172Z,961.02
2018-03-11T10:47:12.201Z,961.02
2018-03-11T10:48:12.237Z,961.02
2018-03-11T10:49:12.299Z,960.98
2018-03-11T10:50:12.303Z,960.98
2018-03-11T10:51:12.335Z,960.98
2018-03-11T10:52:12.370Z,960.98
2018-03-11T10:53:12.402Z,961.02
2018-03-11T10:54:12.432Z,961.02
2018-03-11T10:55:12.470Z,961.06
2018-03-11T10:56:12.506Z,960.99
2018-03-11T10:57:12.539Z,960.99
2018-03-11T10:58:12.571Z,960.99
2018-03-11T10:59:12.605Z,961.01
2018-03-11T11:00:12.631Z,961.00
2018-03-11T11:01:12.665Z,960.94
2018-03-11T11:02:12.706Z,961.06
2018-03-11T11:03:12.742Z,960.92
2018-03-11T11:04:12.770Z,960.97
2018-03-11T11:05:12.802Z,960.99
2018-03-11T11:06:12.832Z,960.99
2018-03-11T11:07:12.866Z,960.95
2018-03-11T11:08:12.899Z,960.99
2018-03-11T11:09:12.934Z,961.00
2018-03-11T11:10:12.969Z,961.03
2018-03-11T11:11:12.992Z,961.06
2018-03-11T11:12:13.028Z,961.11
2018-03-11T11:13:13.062Z,961.10
2018-03-11T11:14:13.092Z,961.10
2018-03-11T11:15:13.127Z,961.07
2018-03-11T11:16:13.163Z,961.06
2018-03-11T11:17:13.195Z,961.04
2018-03-11T11:18:13.230Z,961.06
2018-03-11T11:19:13.256Z,961.06
2018-03-11T11:20:13.285Z,961.07
2018-03-11T11:21:13.322Z,961.06
2018-03-11T11:22:13.376Z,961.00
2018-03-11T11:23:13.384Z,961.08
2018-03-11T11:24:13.421Z,961.08
2018-03-11T11:25:13.449Z,961.11
2018-03-11T11:27:13.516Z,961.15
2018-03-11T11:28:13.574Z,961.06
2018-03-11T11:29:13.584Z,961.03
2018-03-11T11:30:13.620Z,961.06
2018-03-11T11:31:13.688Z,960.98
2018-03-11T11:32:13.681Z,961.02
2018-03-11T11:33:13.709Z,961.04
2018-03-11T11:34:13.745Z,961.00
2018-03-11T11:35:13.777Z,960.99
2018-03-11T11:36:13.813Z,960.99
2018-03-11T11:37:13.848Z,960.97
2018-03-11T11:38:13.875Z,960.94
2018-03-11T11:39:13.911Z,960.88
2018-03-11T11:40:13.943Z,960.88
2018-03-11T11:41:13.976Z,960.84
2018-03-11T11:42:14.004Z,960.87
2018-03-11T11:43:14.040Z,960.87
2018-03-11T11:44:14.067Z,960.86
2018-03-11T11:45:14.099Z,960.85
2018-03-11T11:46:14.130Z,960.87
2018-03-11T11:47:14.164Z,960.79
2018-03-11T11:48:14.199Z,960.74
2018-03-11T11:49:14.230Z,960.68
2018-03-11T11:50:14.266Z,960.62
2018-03-11T11:51:14.295Z,960.60
2018-03-11T11:52:14.322Z,960.58
2018-03-11T11:53:14.356Z,960.55
2018-03-11T11:54:14.389Z,960.53
2018-03-11T11:55:14.443Z,960.54
2018-03-11T11:56:14.502Z,960.54
2018-03-11T11:57:14.484Z,960.50
2018-03-11T11:58:14.519Z,960.48
2018-03-11T11:59:14.550Z,960.47
2018-03-11T12:00:14.578Z,960.44
2018-03-11T12:01:14.612Z,960.41
2018-03-11T12:02:14.638Z,960.37
2018-03-11T12:03:14.672Z,960.36
2018-03-11T12:04:14.709Z,960.31
2018-03-11T12:05:14.737Z,960.32
2018-03-11T12:06:14.773Z,960.28
2018-03-11T12:07:14.803Z,960.24
2018-03-11T12:08:14.830Z,960.22
2018-03-11T12:09:14.861Z,960.19
2018-03-11T12:10:14.893Z,960.18
2018-03-11T12:11:14.924Z,960.16
2018-03-11T12:12:14.980Z,960.15
2018-03-11T12:13:14.990Z,960.10
2018-03-11T12:14:15.029Z,960.11
2018-03-11T12:15:15.055Z,960.09
2018-03-11T12:16:15.089Z,960.14
2018-03-11T12:17:15.120Z,960.09
2018-03-11T12:18:15.157Z,960.10
2018-03-11T12:19:15.185Z,960.07
2018-03-11T12:20:15.214Z,960.05
2018-03-11T12:21:15.246Z,960.04
2018-03-11T12:22:15.275Z,960.04
2018-03-11T12:23:15.308Z,960.05
2018-03-11T12:24:15.345Z,960.02
2018-03-11T12:25:15.376Z,960.03
2018-03-11T12:26:15.408Z,959.98
2018-03-11T12:27:15.443Z,959.95
2018-03-11T12:28:15.472Z,959.92
2018-03-11T12:29:15.507Z,959.90
2018-03-11T12:30:15.535Z,959.90